Hoegh Traveller — LAUN7 — position and weather

sailwx.info

Track history (hours):
 
Tides and Currents Weather Stations Pressure Air Temp Water Temp Dewpoint Dewpoint Depression Visibility Wind Speed Wind Dir Waves Ship Positions

Hoegh Traveller

Last reported at 2017-Nov-19 12:50 UTC. Time now 2017-Nov-19 18:22 UTC.
Position N 38°57' E 014°54'.

Length 199 m; draft 9.7 m.

Type: Other ship. MMSI: 259075000.

Date/timePositionNaut miles runAvg speedWind from/ knotsBaromVisibWave heightAir tempDewpointWater temp
2017-Nov-19 12:50N 38°57' E 014°54'713.8
2017-Nov-19 12:22N 38°52' E 015°00'513.7
2017-Nov-19 11:59N 38°48' E 015°05'713.9
2017-Nov-19 11:30N 38°43' E 015°11'714.2
2017-Nov-19 11:00N 38°38' E 015°18'714.4
2017-Nov-19 10:30N 38°33' E 015°24'714.1
2017-Nov-19 10:00N 38°28' E 015°30'714.0
2017-Nov-19 09:30N 38°24' E 015°37'713.8
2017-Nov-19 09:00N 38°19' E 015°43'510.4
2017-Nov-19 08:30N 38°15' E 015°39'611.3
2017-Nov-19 08:00N 38°09' E 015°37'4 7.1
2017-Nov-19 07:30N 38°06' E 015°36'510.2
2017-Nov-19 07:00N 38°01' E 015°35'1912.9
2017-Nov-19 05:31N 37°50' E 015°56'36712.4
2017-Nov-17 23:51N 37°19' E 023°37'1614.8
2017-Nov-17 22:47N 37°34' E 023°41'414.2
2017-Nov-17 22:30N 37°38' E 023°42'713.8
2017-Nov-17 22:00N 37°45' E 023°39'713.8
2017-Nov-17 21:31N 37°51' E 023°36'510.4
2017-Nov-17 21:00N 37°57' E 023°36'1 2.3
2017-Nov-17 20:31N 37°58' E 023°36'0 0.0
2017-Nov-17 19:56N 37°58' E 023°36'0 0.0
2017-Nov-17 19:30N 37°58' E 023°36'0 0.0
2017-Nov-17 19:00N 37°58' E 023°36'0 0.0
2017-Nov-17 18:30N 37°58' E 023°36'0 0.0
2017-Nov-17 17:54N 37°58' E 023°36'0 0.0
2017-Nov-17 17:30N 37°58' E 023°36'0 0.0
2017-Nov-17 17:00N 37°58' E 023°36'0 0.0
2017-Nov-17 16:30N 37°58' E 023°36'0 0.0
2017-Nov-17 16:00N 37°58' E 023°36'0 0.0
2017-Nov-17 15:30N 37°58' E 023°36'0 0.0
2017-Nov-17 14:57N 37°58' E 023°36'0 0.0
2017-Nov-17 14:30N 37°58' E 023°36'0 0.0
2017-Nov-17 13:57N 37°58' E 023°36'0 0.0
2017-Nov-17 13:24N 37°58' E 023°36'0 0.0
2017-Nov-17 13:00N 37°58' E 023°36'1 2.9
2017-Nov-17 12:31N 37°56' E 023°36'510.0
2017-Nov-17 12:00N 37°51' E 023°35'2 3.6
2017-Nov-17 11:30N 37°50' E 023°35'0 0.5
2017-Nov-17 11:00N 37°50' E 023°35'0 0.7
2017-Nov-17 10:30N 37°50' E 023°35'1 1.3
2017-Nov-17 10:00N 37°51' E 023°34'2 3.5
2017-Nov-17 09:30N 37°52' E 023°34'1 1.1
2017-Nov-17 09:00N 37°53' E 023°35'0 0.6
2017-Nov-17 08:30N 37°53' E 023°35'0 0.6
2017-Nov-17 08:00N 37°53' E 023°35'0 0.4
2017-Nov-17 07:30N 37°53' E 023°35'1 1.2
2017-Nov-17 07:00N 37°53' E 023°35'1 2.8
2017-Nov-17 06:30N 37°52' E 023°33'0 0.6
2017-Nov-17 06:00N 37°52' E 023°34'0 0.4
2017-Nov-17 05:30N 37°52' E 023°34'1 2.8
2017-Nov-17 05:00N 37°53' E 023°34'2 4.7
2017-Nov-17 04:30N 37°52' E 023°37'611.2
2017-Nov-17 04:00N 37°47' E 023°41'713.6
2017-Nov-17 03:30N 37°41' E 023°45'714.2
2017-Nov-17 03:00N 37°35' E 023°48'  
Track history (hours):
 
Tides and Currents Weather Stations Pressure Air Temp Water Temp Dewpoint Dewpoint Depression Visibility Wind Speed Wind Dir Waves Ship Positions

Hoegh Traveller

Last reported at 2017-Nov-19 12:50 UTC. Time now 2017-Nov-19 18:22 UTC.
Position N 38°57' E 014°54'.

Length 199 m; draft 9.7 m.

Type: Other ship. MMSI: 259075000.

Date/timePositionNaut miles runAvg speedWind from/ knotsBaromVisibWave heightAir tempDewpointWater temp
2017-Nov-19 12:50N 38°57' E 014°54'713.8
2017-Nov-19 12:22N 38°52' E 015°00'513.7
2017-Nov-19 11:59N 38°48' E 015°05'713.9
2017-Nov-19 11:30N 38°43' E 015°11'714.2
2017-Nov-19 11:00N 38°38' E 015°18'714.4
2017-Nov-19 10:30N 38°33' E 015°24'714.1
2017-Nov-19 10:00N 38°28' E 015°30'714.0
2017-Nov-19 09:30N 38°24' E 015°37'713.8
2017-Nov-19 09:00N 38°19' E 015°43'510.4
2017-Nov-19 08:30N 38°15' E 015°39'611.3
2017-Nov-19 08:00N 38°09' E 015°37'4 7.1
2017-Nov-19 07:30N 38°06' E 015°36'510.2
2017-Nov-19 07:00N 38°01' E 015°35'1912.9
2017-Nov-19 05:31N 37°50' E 015°56'36712.4
2017-Nov-17 23:51N 37°19' E 023°37'1614.8
2017-Nov-17 22:47N 37°34' E 023°41'414.2
2017-Nov-17 22:30N 37°38' E 023°42'713.8
2017-Nov-17 22:00N 37°45' E 023°39'713.8
2017-Nov-17 21:31N 37°51' E 023°36'510.4
2017-Nov-17 21:00N 37°57' E 023°36'1 2.3
2017-Nov-17 20:31N 37°58' E 023°36'0 0.0
2017-Nov-17 19:56N 37°58' E 023°36'0 0.0
2017-Nov-17 19:30N 37°58' E 023°36'0 0.0
2017-Nov-17 19:00N 37°58' E 023°36'0 0.0
2017-Nov-17 18:30N 37°58' E 023°36'0 0.0
2017-Nov-17 17:54N 37°58' E 023°36'0 0.0
2017-Nov-17 17:30N 37°58' E 023°36'0 0.0
2017-Nov-17 17:00N 37°58' E 023°36'0 0.0
2017-Nov-17 16:30N 37°58' E 023°36'0 0.0
2017-Nov-17 16:00N 37°58' E 023°36'0 0.0
2017-Nov-17 15:30N 37°58' E 023°36'0 0.0
2017-Nov-17 14:57N 37°58' E 023°36'0 0.0
2017-Nov-17 14:30N 37°58' E 023°36'0 0.0
2017-Nov-17 13:57N 37°58' E 023°36'0 0.0
2017-Nov-17 13:24N 37°58' E 023°36'0 0.0
2017-Nov-17 13:00N 37°58' E 023°36'1 2.9
2017-Nov-17 12:31N 37°56' E 023°36'510.0
2017-Nov-17 12:00N 37°51' E 023°35'2 3.6
2017-Nov-17 11:30N 37°50' E 023°35'0 0.5
2017-Nov-17 11:00N 37°50' E 023°35'0 0.7
2017-Nov-17 10:30N 37°50' E 023°35'1 1.3
2017-Nov-17 10:00N 37°51' E 023°34'2 3.5
2017-Nov-17 09:30N 37°52' E 023°34'1 1.1
2017-Nov-17 09:00N 37°53' E 023°35'0 0.6
2017-Nov-17 08:30N 37°53' E 023°35'0 0.6
2017-Nov-17 08:00N 37°53' E 023°35'0 0.4
2017-Nov-17 07:30N 37°53' E 023°35'1 1.2
2017-Nov-17 07:00N 37°53' E 023°35'1 2.8
2017-Nov-17 06:30N 37°52' E 023°33'0 0.6
2017-Nov-17 06:00N 37°52' E 023°34'0 0.4
2017-Nov-17 05:30N 37°52' E 023°34'1 2.8
2017-Nov-17 05:00N 37°53' E 023°34'2 4.7
2017-Nov-17 04:30N 37°52' E 023°37'611.2
2017-Nov-17 04:00N 37°47' E 023°41'713.6
2017-Nov-17 03:30N 37°41' E 023°45'714.2
2017-Nov-17 03:00N 37°35' E 023°48'  

Dump ship's entire track history